Time;durP1;ratioP1;P1;durP2;ratioP2;P2;SDS_P1;SDS_P2;PMS_P1;PMS_P2;Temp;Humidity;BMP_temperature;BMP_pressure;BME280_temperature;BME280_humidity;BME280_pressure;Samples;Min_cycle;Max_cycle;Signal;HPM_P1;HPM_P2
2022/08/25 00:01:54;;;;;;;6.57;3.92;;;19.20;99.90;;;;;;5035669;28;20287;-79
2022/08/25 00:04:22;;;;;;;6.80;3.95;;;19.20;99.90;;;;;;5018447;28;20233;-79
2022/08/25 00:06:49;;;;;;;6.82;3.95;;;19.10;99.90;;;;;;5021139;28;20213;-79
2022/08/25 00:09:19;;;;;;;5.72;3.65;;;19.10;99.90;;;;;;5015819;28;20623;-78
2022/08/25 00:11:48;;;;;;;8.07;4.10;;;19.10;99.90;;;;;;5018107;28;20230;-78
2022/08/25 00:14:19;;;;;;;7.03;4.18;;;19.10;99.90;;;;;;5015192;28;20236;-78
2022/08/25 00:16:46;;;;;;;5.78;4.13;;;19.00;99.90;;;;;;5018144;28;20221;-78
2022/08/25 00:19:15;;;;;;;5.95;4.25;;;19.00;99.90;;;;;;5011862;28;20223;-79
2022/08/25 00:21:42;;;;;;;7.63;4.25;;;19.00;99.90;;;;;;5022091;28;20252;-79
2022/08/25 00:24:11;;;;;;;4.53;3.60;;;19.00;99.90;;;;;;5026153;28;20308;-78
2022/08/25 00:26:39;;;;;;;4.10;3.47;;;18.90;99.90;;;;;;5033722;28;20224;-80
2022/08/25 00:29:08;;;;;;;6.85;4.13;;;18.90;99.90;;;;;;5027253;28;20317;-80
2022/08/25 00:31:35;;;;;;;5.68;4.00;;;18.90;99.90;;;;;;5016947;28;20232;-80
2022/08/25 00:34:02;;;;;;;6.35;3.95;;;18.80;99.90;;;;;;5023345;28;21056;-78
2022/08/25 00:36:29;;;;;;;4.82;4.05;;;18.80;99.90;;;;;;5044437;28;20311;-78
2022/08/25 00:38:56;;;;;;;6.28;4.03;;;18.80;99.90;;;;;;5027396;28;20233;-78
2022/08/25 00:41:25;;;;;;;4.88;3.90;;;18.80;99.90;;;;;;5025313;28;20890;-79
2022/08/25 00:43:55;;;;;;;6.32;4.07;;;18.70;99.90;;;;;;5041866;28;20225;-78
2022/08/25 00:46:26;;;;;;;5.88;4.85;;;18.70;99.90;;;;;;5018113;28;20221;-78
2022/08/25 00:48:57;;;;;;;5.32;3.70;;;18.70;99.90;;;;;;5019507;28;20348;-79
2022/08/25 00:51:32;;;;;;;4.65;4.15;;;18.70;99.90;;;;;;5027921;28;20236;-79
2022/08/25 00:53:59;;;;;;;5.65;4.05;;;18.60;99.90;;;;;;5023300;28;20584;-80
2022/08/25 00:56:28;;;;;;;7.30;4.00;;;18.60;99.90;;;;;;5019014;28;21031;-79
2022/08/25 00:58:55;;;;;;;7.07;4.30;;;18.60;99.90;;;;;;5020134;28;20229;-79
2022/08/25 01:01:23;;;;;;;4.93;4.22;;;18.60;99.90;;;;;;5015080;28;20220;-78
2022/08/25 01:03:50;;;;;;;7.25;4.97;;;18.50;99.90;;;;;;5016023;28;20221;-79
2022/08/25 01:06:17;;;;;;;4.75;4.25;;;18.50;99.90;;;;;;5030598;28;20216;-79
2022/08/25 01:08:44;;;;;;;6.32;4.10;;;18.50;99.90;;;;;;5032223;28;20758;-80
2022/08/25 01:11:12;;;;;;;6.88;3.90;;;18.40;99.90;;;;;;5021233;28;20217;-78
2022/08/25 01:13:43;;;;;;;5.55;4.45;;;18.40;99.90;;;;;;5018540;28;20837;-79
2022/08/25 01:16:12;;;;;;;6.82;3.90;;;18.40;99.90;;;;;;5020485;28;20224;-79
2022/08/25 01:18:46;;;;;;;5.45;4.13;;;18.40;99.90;;;;;;5030423;28;20220;-78
2022/08/25 01:21:16;;;;;;;7.78;4.38;;;18.40;99.90;;;;;;5034697;28;20254;-79
2022/08/25 01:23:43;;;;;;;7.53;4.43;;;18.40;99.90;;;;;;5031629;28;20229;-79
2022/08/25 01:26:13;;;;;;;7.13;4.20;;;18.30;99.90;;;;;;5016189;28;20228;-80
2022/08/25 01:29:19;;;;;;;6.43;4.60;;;18.30;99.90;;;;;;5015772;28;20227;-78
2022/08/25 01:31:29;;;;;;;5.13;4.03;;;18.30;99.90;;;;;;5013592;28;20233;-79
2022/08/25 01:33:57;;;;;;;6.93;4.65;;;18.30;99.90;;;;;;5009580;28;20231;-78
2022/08/25 01:36:27;;;;;;;5.90;4.13;;;18.20;99.90;;;;;;5036961;28;20312;-79
2022/08/25 01:38:54;;;;;;;6.40;4.38;;;18.20;99.90;;;;;;5019745;28;20748;-80
2022/08/25 01:41:31;;;;;;;6.03;4.90;;;18.20;99.90;;;;;;5014730;28;20258;-79
2022/08/25 01:43:58;;;;;;;5.40;4.45;;;18.10;99.90;;;;;;5015251;28;20224;-79
2022/08/25 01:46:24;;;;;;;5.95;4.57;;;18.10;99.90;;;;;;5011910;28;20306;-78
2022/08/25 01:48:51;;;;;;;6.38;4.47;;;18.10;99.90;;;;;;5018243;28;20225;-77
2022/08/25 01:51:23;;;;;;;7.05;4.47;;;18.10;99.90;;;;;;5018668;28;20877;-78
2022/08/25 01:53:51;;;;;;;5.70;4.00;;;18.10;99.90;;;;;;5014047;28;20226;-80
2022/08/25 01:56:18;;;;;;;5.80;4.28;;;18.10;99.90;;;;;;5018720;28;20742;-78
2022/08/25 01:58:48;;;;;;;5.95;4.90;;;18.00;99.90;;;;;;5022627;28;20922;-78
2022/08/25 02:01:18;;;;;;;6.95;4.68;;;18.00;99.90;;;;;;5016419;28;20225;-79
2022/08/25 02:03:47;;;;;;;9.23;4.88;;;18.00;99.90;;;;;;5013589;28;20247;-80
2022/08/25 02:06:16;;;;;;;5.32;4.13;;;17.90;99.90;;;;;;5011815;28;20221;-80
2022/08/25 02:08:43;;;;;;;5.90;4.53;;;17.90;99.90;;;;;;5019409;28;20232;-81
2022/08/25 02:11:13;;;;;;;6.35;4.30;;;17.90;99.90;;;;;;5031933;28;20250;-79
2022/08/25 02:13:41;;;;;;;6.00;4.50;;;17.90;99.90;;;;;;5031613;28;20244;-79
2022/08/25 02:16:10;;;;;;;5.93;4.93;;;17.80;99.90;;;;;;5022542;28;20220;-79
2022/08/25 02:18:37;;;;;;;6.03;4.50;;;17.90;99.90;;;;;;5026101;28;20226;-79
2022/08/25 02:21:04;;;;;;;7.43;4.50;;;17.80;99.90;;;;;;5015243;28;20229;-80
2022/08/25 02:23:30;;;;;;;7.00;5.07;;;17.80;99.90;;;;;;5017986;28;20262;-78
2022/08/25 02:25:57;;;;;;;6.65;4.70;;;17.80;99.90;;;;;;5018133;28;20547;-78
2022/08/25 02:28:26;;;;;;;6.40;4.05;;;17.70;99.90;;;;;;5018072;28;20233;-79
2022/08/25 02:30:52;;;;;;;6.15;4.28;;;17.70;99.90;;;;;;5022890;28;20697;-79
2022/08/25 02:33:19;;;;;;;6.68;4.40;;;17.70;99.90;;;;;;5027479;28;20220;-78
2022/08/25 02:35:46;;;;;;;4.88;4.38;;;17.70;99.90;;;;;;5018845;28;20904;-79
2022/08/25 02:38:12;;;;;;;6.63;4.47;;;17.70;99.90;;;;;;5030475;28;20221;-80
2022/08/25 02:40:39;;;;;;;5.60;4.25;;;17.60;99.90;;;;;;5035306;28;20242;-79
2022/08/25 02:43:06;;;;;;;5.90;4.57;;;17.60;99.90;;;;;;5027981;28;20229;-77
2022/08/25 02:45:35;;;;;;;6.05;4.57;;;17.60;99.90;;;;;;5015386;28;20221;-79
2022/08/25 02:48:02;;;;;;;9.13;5.03;;;17.60;99.90;;;;;;5022353;28;20221;-79
2022/08/25 02:50:29;;;;;;;6.10;4.88;;;17.60;99.90;;;;;;5024268;28;20385;-79
2022/08/25 02:52:56;;;;;;;6.15;5.05;;;17.60;99.90;;;;;;5028443;28;20236;-79
2022/08/25 02:55:23;;;;;;;5.05;4.28;;;17.60;99.90;;;;;;5025522;28;20312;-78
2022/08/25 02:57:50;;;;;;;6.63;4.68;;;17.50;99.90;;;;;;5023509;28;20624;-83
2022/08/25 03:00:17;;;;;;;6.70;5.03;;;17.50;99.90;;;;;;5022066;28;20764;-78
2022/08/25 03:02:46;;;;;;;5.72;4.82;;;17.50;99.90;;;;;;5018995;28;20233;-78
2022/08/25 03:05:14;;;;;;;8.32;4.68;;;17.40;99.90;;;;;;5020999;28;20217;-78
2022/08/25 03:07:41;;;;;;;7.03;5.40;;;17.40;99.90;;;;;;5019172;28;20233;-79
2022/08/25 03:10:11;;;;;;;12.10;5.15;;;17.40;99.90;;;;;;5018541;28;20255;-79
2022/08/25 03:12:40;;;;;;;7.28;5.00;;;17.40;99.90;;;;;;5025171;28;20228;-79
2022/08/25 03:15:07;;;;;;;7.88;4.75;;;17.40;99.90;;;;;;5039155;28;20293;-80
2022/08/25 03:17:34;;;;;;;7.78;5.68;;;17.40;99.90;;;;;;5019023;28;20224;-80
2022/08/25 03:20:03;;;;;;;8.57;5.15;;;17.40;99.90;;;;;;5018254;28;20220;-80
2022/08/25 03:22:30;;;;;;;6.63;4.70;;;17.40;99.90;;;;;;5018956;28;20233;-80
2022/08/25 03:26:52;;;;;;;7.33;5.20;;;17.40;99.90;;;;;;5018055;28;20235;-79
2022/08/25 03:27:42;;;;;;;6.43;5.13;;;17.30;99.90;;;;;;5035763;28;20316;-79
2022/08/25 03:30:10;;;;;;;7.50;4.90;;;17.30;99.90;;;;;;5025835;28;20742;-80
2022/08/25 03:32:38;;;;;;;6.13;4.73;;;17.30;99.90;;;;;;5017281;28;20224;-80
2022/08/25 03:35:07;;;;;;;8.85;5.00;;;17.30;99.90;;;;;;5022965;28;20911;-80
2022/08/25 03:37:33;;;;;;;5.45;4.88;;;17.20;99.90;;;;;;5022590;28;20297;-82
2022/08/25 03:40:01;;;;;;;5.70;5.03;;;17.20;99.90;;;;;;5022079;28;20213;-79
2022/08/25 03:42:28;;;;;;;6.33;5.30;;;17.20;99.90;;;;;;5019886;28;20582;-80
2022/08/25 03:44:55;;;;;;;8.43;5.82;;;17.20;99.90;;;;;;5019918;28;21912;-80
2022/08/25 03:47:23;;;;;;;7.25;4.65;;;17.20;99.90;;;;;;5017636;28;20224;-80
2022/08/25 03:49:50;;;;;;;8.07;5.57;;;17.20;99.90;;;;;;5019160;28;20306;-80
2022/08/25 03:52:18;;;;;;;5.57;4.82;;;17.10;99.90;;;;;;5021578;28;20252;-81
2022/08/25 03:54:45;;;;;;;7.30;5.47;;;17.10;99.90;;;;;;5018184;28;20235;-79
2022/08/25 03:57:12;;;;;;;6.97;5.33;;;17.10;99.90;;;;;;5020165;28;20225;-79
2022/08/25 03:59:38;;;;;;;5.87;5.20;;;17.10;99.90;;;;;;5024790;28;20228;-78
2022/08/25 04:02:06;;;;;;;5.90;5.18;;;17.10;99.90;;;;;;5020946;28;20231;-79
2022/08/25 04:04:33;;;;;;;7.90;6.03;;;17.00;99.90;;;;;;5012254;28;20220;-80
2022/08/25 04:07:01;;;;;;;7.70;6.20;;;17.00;99.90;;;;;;5019168;28;20291;-79
2022/08/25 04:09:32;;;;;;;9.80;5.77;;;17.00;99.90;;;;;;5035562;28;20232;-79
2022/08/25 04:11:58;;;;;;;8.70;5.93;;;17.00;99.90;;;;;;5029018;28;20228;-81
2022/08/25 04:14:25;;;;;;;6.83;6.07;;;17.00;99.90;;;;;;5027325;28;21397;-79
2022/08/25 04:16:52;;;;;;;10.13;6.03;;;17.00;99.90;;;;;;5019622;28;22185;-81
2022/08/25 04:19:20;;;;;;;7.83;5.90;;;16.90;99.90;;;;;;5023128;28;20216;-80
2022/08/25 04:21:51;;;;;;;9.47;6.37;;;16.90;99.90;;;;;;5018379;28;20851;-80
2022/08/25 04:24:20;;;;;;;7.87;6.10;;;16.90;99.90;;;;;;5019311;28;20227;-79
2022/08/25 04:26:50;;;;;;;9.33;6.00;;;16.90;99.90;;;;;;5035165;28;20763;-79
2022/08/25 04:29:20;;;;;;;8.27;6.07;;;16.90;99.90;;;;;;5034902;28;20254;-79
2022/08/25 04:31:49;;;;;;;7.88;5.80;;;16.90;99.90;;;;;;5020848;28;20235;-79
2022/08/25 04:34:16;;;;;;;7.90;6.03;;;16.90;99.90;;;;;;5020529;28;20276;-79
2022/08/25 04:36:43;;;;;;;6.60;5.90;;;16.90;99.90;;;;;;5023909;28;20236;-79
2022/08/25 04:39:11;;;;;;;8.32;5.93;;;16.80;99.90;;;;;;5014990;28;20225;-79
2022/08/25 04:41:41;;;;;;;9.87;6.60;;;16.80;99.90;;;;;;5023887;28;20294;-79
2022/08/25 04:44:09;;;;;;;8.25;6.45;;;16.90;99.90;;;;;;5015205;28;20311;-79
2022/08/25 04:46:36;;;;;;;7.83;5.63;;;16.80;99.90;;;;;;5016085;28;20232;-78
2022/08/25 04:49:03;;;;;;;6.93;5.80;;;16.80;99.90;;;;;;5020812;28;20221;-79
2022/08/25 04:51:32;;;;;;;10.63;5.97;;;16.80;99.90;;;;;;5037939;28;20286;-79
2022/08/25 04:54:00;;;;;;;6.83;6.17;;;16.80;99.90;;;;;;5021948;28;20215;-79
2022/08/25 04:56:28;;;;;;;10.13;6.70;;;16.80;99.90;;;;;;5026070;28;20238;-79
2022/08/25 04:58:55;;;;;;;10.57;6.60;;;16.80;99.90;;;;;;5016970;28;20234;-78
2022/08/25 05:01:26;;;;;;;8.48;7.07;;;16.80;99.90;;;;;;5006197;28;20769;-79
2022/08/25 05:03:55;;;;;;;9.18;7.68;;;16.90;99.90;;;;;;5027794;28;20307;-79
2022/08/25 05:06:22;;;;;;;10.27;7.65;;;17.00;99.90;;;;;;5020727;28;20221;-79
2022/08/25 05:08:50;;;;;;;12.38;8.25;;;16.90;99.90;;;;;;5020598;28;20228;-80
2022/08/25 05:11:18;;;;;;;10.30;8.65;;;17.00;99.90;;;;;;5015407;28;20267;-79
2022/08/25 05:13:46;;;;;;;12.30;8.00;;;17.10;99.90;;;;;;5019116;28;20627;-79
2022/08/25 05:16:12;;;;;;;14.27;9.10;;;17.10;99.90;;;;;;5020957;28;20831;-79
2022/08/25 05:18:41;;;;;;;10.50;8.60;;;17.20;99.90;;;;;;5033022;28;20856;-79
2022/08/25 05:21:10;;;;;;;12.52;9.30;;;17.30;99.90;;;;;;5040235;28;20315;-80
2022/08/25 05:23:38;;;;;;;12.07;9.40;;;17.30;99.90;;;;;;5037247;28;20301;-81
2022/08/25 05:26:07;;;;;;;11.13;9.10;;;17.40;99.90;;;;;;5037894;28;20262;-80
2022/08/25 05:28:34;;;;;;;10.77;9.32;;;17.50;99.90;;;;;;5040084;28;20709;-79
2022/08/25 05:31:02;;;;;;;14.30;9.55;;;17.50;99.90;;;;;;5036925;28;20944;-78
2022/08/25 05:33:29;;;;;;;12.15;9.02;;;17.60;99.90;;;;;;5031622;28;20258;-79
2022/08/25 05:35:57;;;;;;;13.02;10.43;;;17.70;99.90;;;;;;5023650;28;20233;-80
2022/08/25 05:38:24;;;;;;;12.52;10.02;;;17.70;99.90;;;;;;5019818;28;20224;-79
2022/08/25 05:40:52;;;;;;;11.93;9.30;;;17.70;99.90;;;;;;5035683;28;20241;-81
2022/08/25 05:43:19;;;;;;;11.60;10.13;;;17.80;99.90;;;;;;5017110;28;20231;-79
2022/08/25 05:45:46;;;;;;;11.80;9.77;;;17.90;99.90;;;;;;5015281;28;20229;-79
2022/08/25 05:48:16;;;;;;;13.25;11.20;;;18.00;99.90;;;;;;5014126;28;20232;-79
2022/08/25 05:50:50;;;;;;;14.65;11.35;;;18.00;99.90;;;;;;5026491;28;20625;-80
2022/08/25 05:53:18;;;;;;;12.32;10.45;;;18.10;99.90;;;;;;5015440;28;20775;-81
2022/08/25 05:55:45;;;;;;;14.45;10.98;;;18.20;99.90;;;;;;5031251;28;20319;-81
2022/08/25 05:58:11;;;;;;;13.40;11.95;;;18.20;99.90;;;;;;5022584;28;20220;-79
2022/08/25 06:00:39;;;;;;;13.32;11.93;;;18.30;99.90;;;;;;5018729;28;20216;-78
2022/08/25 06:03:05;;;;;;;15.70;11.70;;;18.40;99.90;;;;;;5015226;28;20221;-79
2022/08/25 06:05:32;;;;;;;16.00;12.00;;;18.40;99.90;;;;;;5020734;28;20487;-79
2022/08/25 06:07:59;;;;;;;14.23;12.10;;;18.50;99.90;;;;;;5030828;28;20224;-81
2022/08/25 06:10:28;;;;;;;13.63;11.15;;;18.60;99.90;;;;;;5018599;28;20225;-80
2022/08/25 06:12:56;;;;;;;12.80;11.25;;;18.70;99.90;;;;;;5013893;28;20634;-78
2022/08/25 06:15:24;;;;;;;13.60;11.30;;;18.70;99.90;;;;;;5017683;28;20575;-79
2022/08/25 06:17:52;;;;;;;12.07;10.77;;;18.80;99.90;;;;;;5016956;28;20227;-79
2022/08/25 06:20:21;;;;;;;15.68;11.50;;;18.80;99.90;;;;;;5024651;28;20752;-80
2022/08/25 06:22:49;;;;;;;11.75;10.50;;;18.90;99.90;;;;;;5023357;28;20719;-81
2022/08/25 06:25:21;;;;;;;12.63;11.48;;;19.00;99.90;;;;;;5036606;28;20266;-79
2022/08/25 06:27:49;;;;;;;12.23;10.95;;;19.00;99.90;;;;;;5040846;28;20258;-81
2022/08/25 06:30:20;;;;;;;13.10;11.80;;;19.00;99.90;;;;;;5043137;28;20321;-80
2022/08/25 06:32:48;;;;;;;13.98;12.23;;;19.10;99.90;;;;;;5037733;28;20420;-82
2022/08/25 06:35:19;;;;;;;15.18;12.23;;;19.10;99.90;;;;;;5027600;28;20224;-80
2022/08/25 06:37:46;;;;;;;14.82;13.27;;;19.10;99.90;;;;;;5039422;28;20240;-81
2022/08/25 06:40:15;;;;;;;13.40;12.00;;;19.10;99.90;;;;;;5037117;28;20231;-80
2022/08/25 06:42:44;;;;;;;14.73;12.75;;;19.20;99.90;;;;;;5029211;28;20233;-80
2022/08/25 06:45:13;;;;;;;14.48;12.48;;;19.20;99.90;;;;;;5026472;28;20213;-82
2022/08/25 06:47:39;;;;;;;15.07;12.40;;;19.30;99.90;;;;;;5039904;28;20231;-80
2022/08/25 06:50:09;;;;;;;15.75;13.50;;;19.30;99.90;;;;;;5047054;28;20326;-81
2022/08/25 06:52:36;;;;;;;16.08;12.40;;;19.30;99.90;;;;;;5050379;28;20307;-82
2022/08/25 06:55:03;;;;;;;15.25;12.70;;;19.30;99.90;;;;;;5047020;28;20307;-80
2022/08/25 06:57:32;;;;;;;15.95;12.23;;;19.40;99.90;;;;;;5048045;28;20599;-81
2022/08/25 06:59:59;;;;;;;16.60;12.40;;;19.40;99.90;;;;;;5037623;28;20222;-81
2022/08/25 07:02:27;;;;;;;13.05;11.68;;;19.50;99.90;;;;;;5035557;28;20236;-81
2022/08/25 07:04:54;;;;;;;12.23;10.98;;;19.40;99.90;;;;;;5030206;28;20250;-81
2022/08/25 07:07:21;;;;;;;13.50;12.10;;;19.50;99.90;;;;;;5030896;28;20323;-80
2022/08/25 07:09:48;;;;;;;13.50;12.07;;;19.50;99.90;;;;;;5026797;28;20224;-82
2022/08/25 07:12:15;;;;;;;12.95;11.65;;;19.60;99.90;;;;;;5034049;28;20248;-80
2022/08/25 07:14:42;;;;;;;12.88;11.57;;;19.60;99.90;;;;;;5051855;28;20232;-82
2022/08/25 07:17:09;;;;;;;11.65;10.45;;;19.70;99.90;;;;;;5026142;28;20323;-84
2022/08/25 07:19:37;;;;;;;12.55;11.15;;;19.70;99.90;;;;;;5020024;28;20395;-86
2022/08/25 07:22:04;;;;;;;13.05;11.63;;;19.80;99.90;;;;;;5044462;28;20247;-78
2022/08/25 07:24:33;;;;;;;11.93;10.73;;;19.80;99.90;;;;;;5026968;28;20236;-80
2022/08/25 07:27:00;;;;;;;11.95;10.75;;;19.90;99.90;;;;;;5023792;28;20229;-79
2022/08/25 07:29:31;;;;;;;11.85;10.65;;;19.90;99.90;;;;;;5030798;28;20246;-78
2022/08/25 07:31:58;;;;;;;14.60;10.98;;;20.00;99.90;;;;;;5046649;28;20743;-78
2022/08/25 07:37:10;;;;;;;11.55;10.35;;;20.00;99.90;;;;;;5023279;28;20218;-79
2022/08/25 07:39:37;;;;;;;12.23;11.02;;;20.00;99.90;;;;;;5030278;28;20224;-77
2022/08/25 07:42:04;;;;;;;11.48;10.27;;;20.00;99.90;;;;;;5027211;28;20240;-78
2022/08/25 07:44:31;;;;;;;10.93;9.80;;;20.00;99.90;;;;;;5021738;28;20255;-78
2022/08/25 07:46:58;;;;;;;11.90;10.23;;;20.10;99.90;;;;;;5025165;28;20712;-78
2022/08/25 07:49:26;;;;;;;11.23;10.07;;;20.10;99.90;;;;;;5021296;28;20226;-78
2022/08/25 07:51:53;;;;;;;13.80;10.25;;;20.20;99.90;;;;;;5036896;28;20854;-77
2022/08/25 07:54:21;;;;;;;13.45;11.15;;;20.30;99.90;;;;;;5026562;28;20232;-79
2022/08/25 07:56:49;;;;;;;11.65;10.45;;;20.40;99.90;;;;;;5025751;28;20217;-77
2022/08/25 07:59:16;;;;;;;11.05;9.95;;;20.40;99.90;;;;;;5029538;28;20221;-78
2022/08/25 08:01:43;;;;;;;12.43;10.95;;;20.50;99.90;;;;;;5038577;28;20239;-80
2022/08/25 08:04:11;;;;;;;11.00;9.82;;;20.50;99.90;;;;;;5019610;28;20426;-81
2022/08/25 08:06:39;;;;;;;10.88;9.77;;;20.50;99.90;;;;;;5022656;28;20222;-78
2022/08/25 08:09:07;;;;;;;12.13;9.93;;;20.50;99.90;;;;;;5020167;28;20235;-82
2022/08/25 08:11:39;;;;;;;11.00;9.70;;;20.50;99.90;;;;;;5046977;28;20267;-80
2022/08/25 08:14:07;;;;;;;12.68;10.18;;;20.50;99.90;;;;;;5030844;28;20223;-78
2022/08/25 08:16:34;;;;;;;11.02;9.93;;;20.50;99.90;;;;;;5038071;28;20310;-78
2022/08/25 08:19:01;;;;;;;12.23;10.48;;;20.50;99.90;;;;;;5020707;28;20231;-77
2022/08/25 08:21:31;;;;;;;11.73;10.52;;;20.50;99.90;;;;;;5017433;28;20984;-77
2022/08/25 08:23:58;;;;;;;12.18;10.85;;;20.50;99.90;;;;;;5030822;28;20328;-77
2022/08/25 08:26:26;;;;;;;11.65;10.43;;;20.50;99.90;;;;;;5021046;28;20337;-78
2022/08/25 08:28:55;;;;;;;14.65;11.35;;;20.60;99.90;;;;;;5020407;28;20304;-77
2022/08/25 08:31:25;;;;;;;11.18;10.07;;;20.70;99.90;;;;;;5016681;28;20306;-79
2022/08/25 08:33:54;;;;;;;10.93;9.82;;;20.70;99.90;;;;;;5039220;28;20801;-79
2022/08/25 08:36:21;;;;;;;13.45;9.70;;;20.80;99.90;;;;;;5040818;28;20320;-78
2022/08/25 08:38:48;;;;;;;11.02;9.65;;;20.90;99.90;;;;;;5039072;28;20216;-79
2022/08/25 08:44:27;;;;;;;11.77;9.68;;;21.10;99.90;;;;;;5014424;28;20370;-79
2022/08/25 08:47:05;;;;;;;11.88;9.57;;;21.20;99.90;;;;;;5017834;28;20229;-79
2022/08/25 08:49:39;;;;;;;10.82;9.63;;;21.40;99.90;;;;;;5035679;28;20323;-82
2022/08/25 08:52:09;;;;;;;10.77;9.68;;;21.50;99.90;;;;;;5044814;28;20229;-82
2022/08/25 08:54:39;;;;;;;11.40;10.25;;;21.60;99.90;;;;;;5037749;28;20220;-81
2022/08/25 08:57:15;;;;;;;12.80;11.07;;;21.70;99.90;;;;;;5034548;28;20231;-80
2022/08/25 08:59:49;;;;;;;10.88;9.77;;;21.80;99.90;;;;;;5046798;28;20242;-81
2022/08/25 09:02:25;;;;;;;11.63;10.63;;;22.00;99.90;;;;;;5042354;28;20220;-82
2022/08/25 09:04:56;;;;;;;12.30;11.00;;;22.10;99.90;;;;;;5042248;28;20299;-80
2022/08/25 09:07:29;;;;;;;11.70;10.57;;;22.10;99.90;;;;;;5039447;28;21816;-81
2022/08/25 09:09:57;;;;;;;11.02;9.93;;;22.30;99.90;;;;;;5041097;28;20436;-81
2022/08/25 09:12:33;;;;;;;12.18;10.95;;;22.50;99.90;;;;;;5045707;28;20242;-81
2022/08/25 09:15:12;;;;;;;12.30;10.75;;;22.80;99.90;;;;;;5023885;28;20278;-83
2022/08/25 09:17:55;;;;;;;11.55;10.05;;;23.00;99.90;;;;;;5041773;28;20246;-82
2022/08/25 09:20:41;;;;;;;10.73;9.57;;;23.30;99.90;;;;;;5039188;28;20231;-80
2022/08/25 09:23:22;;;;;;;9.82;8.55;;;23.60;99.90;;;;;;5040685;28;20299;-80
2022/08/25 09:25:57;;;;;;;8.45;7.53;;;24.20;99.90;;;;;;5042818;28;20224;-82
2022/08/25 09:28:31;;;;;;;8.52;7.63;;;24.80;99.90;;;;;;5055267;28;20232;-82
2022/08/25 09:31:02;;;;;;;8.00;7.30;;;25.50;99.90;;;;;;5036298;28;20566;-81
2022/08/25 09:33:32;;;;;;;8.80;7.32;;;26.10;99.90;;;;;;5024123;28;20854;-81
2022/08/25 09:35:59;;;;;;;7.97;6.85;;;26.70;99.90;;;;;;5030542;28;20232;-82
2022/08/25 09:38:28;;;;;;;6.70;6.00;;;27.20;99.60;;;;;;5032718;28;20315;-81
2022/08/25 09:40:56;;;;;;;7.50;5.63;;;27.60;99.00;;;;;;5026874;28;20216;-83
2022/08/25 09:43:30;;;;;;;6.35;5.65;;;28.00;98.30;;;;;;5030027;28;20231;-82
2022/08/25 09:46:01;;;;;;;7.07;6.03;;;28.30;96.90;;;;;;5021608;28;20251;-81
2022/08/25 09:48:36;;;;;;;5.97;4.90;;;28.50;96.40;;;;;;5020746;28;20539;-80
2022/08/25 09:51:16;;;;;;;7.00;5.00;;;28.70;96.40;;;;;;5021841;28;20286;-83
2022/08/25 09:53:48;;;;;;;6.15;4.40;;;29.10;95.70;;;;;;5032325;28;21011;-82
2022/08/25 09:56:18;;;;;;;5.88;4.65;;;29.40;95.40;;;;;;5039038;28;20229;-82
2022/08/25 09:58:49;;;;;;;15.30;3.97;;;29.70;95.20;;;;;;5022541;28;20221;-81
2022/08/25 10:01:19;;;;;;;7.30;3.30;;;30.00;94.40;;;;;;5021482;28;20286;-81
2022/08/25 10:04:01;;;;;;;5.25;3.55;;;30.30;94.00;;;;;;5040648;28;20320;-82
2022/08/25 10:06:34;;;;;;;4.40;2.92;;;30.70;93.40;;;;;;5020207;28;20221;-81
2022/08/25 10:09:05;;;;;;;4.75;3.22;;;31.10;93.00;;;;;;5039744;28;20216;-82
2022/08/25 10:11:43;;;;;;;4.93;3.22;;;31.40;92.30;;;;;;5047121;28;20277;-81
2022/08/25 10:14:27;;;;;;;3.92;2.80;;;31.80;91.60;;;;;;5053015;28;20211;-82
2022/08/25 10:17:13;;;;;;;5.78;2.80;;;32.20;90.80;;;;;;5047184;28;20585;-81
2022/08/25 10:19:40;;;;;;;4.97;3.15;;;32.50;90.60;;;;;;5024331;28;20295;-82
2022/08/25 10:22:09;;;;;;;4.75;3.15;;;32.90;90.10;;;;;;5024056;28;20229;-83
2022/08/25 10:24:37;;;;;;;5.82;2.85;;;33.10;87.80;;;;;;5040346;28;20224;-81
2022/08/25 10:27:14;;;;;;;4.45;3.10;;;33.40;87.20;;;;;;5046787;28;20449;-81
2022/08/25 10:29:59;;;;;;;4.68;2.80;;;33.70;84.80;;;;;;5042961;28;20234;-80
2022/08/25 10:32:36;;;;;;;4.13;3.45;;;34.10;84.70;;;;;;5040561;28;20227;-81
2022/08/25 10:35:11;;;;;;;5.18;2.55;;;34.40;82.70;;;;;;5038384;28;20317;-81
2022/08/25 10:37:47;;;;;;;4.70;2.63;;;34.60;79.70;;;;;;5057488;28;20259;-82
2022/08/25 10:40:22;;;;;;;4.82;2.63;;;34.70;78.70;;;;;;5036073;28;20247;-81
2022/08/25 10:43:05;;;;;;;4.80;3.08;;;34.80;78.20;;;;;;5055126;28;20234;-84
2022/08/25 10:45:43;;;;;;;4.43;2.90;;;34.80;76.80;;;;;;5027937;28;20242;-84
2022/08/25 10:48:31;;;;;;;7.40;2.90;;;34.90;76.30;;;;;;5043213;28;20216;-81
2022/08/25 10:51:05;;;;;;;4.93;2.70;;;34.70;75.80;;;;;;5044583;28;20220;-83
2022/08/25 10:53:49;;;;;;;6.07;3.13;;;34.40;73.40;;;;;;5047745;28;20315;-82
2022/08/25 10:56:20;;;;;;;6.95;2.90;;;33.90;74.20;;;;;;5042379;28;20224;-82
2022/08/25 10:59:19;;;;;;;3.47;2.90;;;33.60;74.80;;;;;;5038891;28;20263;-81
2022/08/25 11:02:02;;;;;;;8.63;2.80;;;33.30;75.10;;;;;;5043747;28;20225;-81
2022/08/25 11:04:35;;;;;;;4.57;2.97;;;33.10;75.00;;;;;;5047062;28;20290;-82
2022/08/25 11:07:08;;;;;;;3.90;2.63;;;32.80;74.80;;;;;;5038302;28;20230;-81
2022/08/25 11:09:38;;;;;;;3.70;2.80;;;32.60;76.10;;;;;;5043124;28;20223;-82
2022/08/25 11:12:10;;;;;;;3.17;2.38;;;32.50;75.40;;;;;;5043142;28;20220;-82
2022/08/25 11:14:40;;;;;;;3.95;2.45;;;32.40;75.20;;;;;;5040439;28;20231;-82
2022/08/25 11:17:12;;;;;;;6.22;2.60;;;32.30;76.10;;;;;;5042457;28;20254;-81
2022/08/25 11:19:44;;;;;;;3.97;2.60;;;32.30;76.60;;;;;;5043416;28;20224;-82
2022/08/25 11:22:16;;;;;;;5.18;2.53;;;32.40;76.30;;;;;;5036418;28;20320;-81
2022/08/25 11:24:55;;;;;;;3.95;2.50;;;32.60;76.10;;;;;;5039761;28;20228;-83
2022/08/25 11:27:25;;;;;;;3.97;2.63;;;32.80;75.60;;;;;;5047010;28;20219;-81
2022/08/25 11:30:00;;;;;;;4.95;2.92;;;33.00;74.10;;;;;;5044816;28;20227;-81
2022/08/25 11:32:32;;;;;;;5.03;2.63;;;33.10;73.40;;;;;;5036312;28;20311;-81
2022/08/25 11:35:04;;;;;;;5.13;3.03;;;33.20;72.70;;;;;;5036092;28;20220;-82
2022/08/25 11:37:32;;;;;;;3.30;2.90;;;33.10;72.00;;;;;;5017409;28;20228;-81
2022/08/25 11:40:28;;;;;;;4.57;2.50;;;33.00;71.90;;;;;;5033883;28;20227;-83
2022/08/25 11:43:12;;;;;;;4.20;2.70;;;32.90;71.90;;;;;;5035614;28;20228;-82
2022/08/25 11:45:58;;;;;;;4.25;2.70;;;32.80;71.70;;;;;;5034118;28;20240;-82
2022/08/25 11:48:37;;;;;;;6.65;2.67;;;32.70;71.70;;;;;;5025007;28;20221;-81
2022/08/25 11:51:07;;;;;;;6.82;2.67;;;32.70;72.30;;;;;;5039816;28;20764;-80
2022/08/25 11:53:36;;;;;;;3.17;2.70;;;32.70;71.60;;;;;;5028437;28;20221;-80
2022/08/25 11:56:06;;;;;;;4.32;2.58;;;32.70;70.80;;;;;;5031161;28;20253;-81
2022/08/25 11:58:39;;;;;;;4.15;2.72;;;32.50;70.50;;;;;;5026352;28;20221;-82
2022/08/25 12:01:10;;;;;;;5.38;2.80;;;32.30;70.60;;;;;;5025095;28;20221;-82
2022/08/25 12:04:13;;;;;;;3.40;2.50;;;32.00;71.50;;;;;;5036346;28;20316;-81
2022/08/25 12:07:17;;;;;;;4.60;2.65;;;31.70;72.30;;;;;;5028575;28;20231;-81
2022/08/25 12:10:11;;;;;;;4.75;2.60;;;31.60;72.80;;;;;;5040127;28;20231;-82
2022/08/25 12:13:04;;;;;;;9.32;2.75;;;31.60;73.10;;;;;;5028817;28;20225;-82
2022/08/25 12:15:53;;;;;;;4.40;2.58;;;31.90;73.30;;;;;;5024739;28;20688;-81
2022/08/25 12:18:42;;;;;;;4.78;2.65;;;32.20;73.30;;;;;;5024675;28;20220;-81
2022/08/25 12:21:32;;;;;;;3.67;2.60;;;32.60;71.40;;;;;;5025029;28;20472;-82
2022/08/25 12:24:11;;;;;;;3.78;2.50;;;32.90;70.50;;;;;;5026635;28;20227;-82
2022/08/25 12:26:45;;;;;;;5.10;2.60;;;33.30;69.40;;;;;;5018913;28;20217;-82
2022/08/25 12:29:19;;;;;;;5.32;2.90;;;33.60;68.30;;;;;;5022939;28;20375;-82
2022/08/25 12:31:58;;;;;;;3.33;2.50;;;33.80;67.30;;;;;;5026878;28;20248;-81
2022/08/25 12:34:40;;;;;;;2.83;2.40;;;33.80;66.30;;;;;;5029556;28;20227;-81
2022/08/25 12:37:13;;;;;;;6.15;2.75;;;33.90;65.70;;;;;;5046591;28;20254;-81
2022/08/25 12:39:54;;;;;;;3.70;2.50;;;33.90;65.90;;;;;;5022441;28;20301;-81
2022/08/25 12:42:28;;;;;;;4.45;2.63;;;33.90;64.90;;;;;;5028447;28;20224;-83
2022/08/25 12:45:12;;;;;;;3.05;2.40;;;34.00;64.20;;;;;;5022641;28;21993;-81
2022/08/25 12:47:41;;;;;;;5.45;2.50;;;34.00;64.10;;;;;;5040087;28;20319;-82
2022/08/25 12:50:28;;;;;;;4.88;2.72;;;33.90;63.10;;;;;;5025482;28;20224;-81
2022/08/25 12:53:00;;;;;;;3.42;2.53;;;33.80;64.00;;;;;;5060447;28;20250;-82
2022/08/25 12:55:29;;;;;;;5.13;2.95;;;33.60;63.40;;;;;;5033660;28;20224;-83
2022/08/25 12:57:59;;;;;;;4.35;2.50;;;33.20;63.30;;;;;;5063839;28;20252;-82
2022/08/25 13:00:29;;;;;;;4.10;2.60;;;33.00;64.50;;;;;;5047313;28;20315;-82
2022/08/25 13:03:45;;;;;;;3.28;2.50;;;32.80;64.00;;;;;;5048417;28;20231;-82
2022/08/25 13:06:26;;;;;;;4.47;2.40;;;32.80;65.50;;;;;;4957349;28;20777;-82